sensor_id;sensor_type;location;lat;lon;timestamp;pressure;altitude;pressure_sealevel;temperature;humidity
7337;BME280;54510;42.016;23.098;2023-05-19T00:02:13;-21614.13;;;17.49;69.67
7337;BME280;54510;42.016;23.098;2023-05-19T00:04:39;-21610.53;;;17.35;70.20
7337;BME280;54510;42.016;23.098;2023-05-19T00:07:05;-21613.69;;;17.47;70.14
7337;BME280;54510;42.016;23.098;2023-05-19T00:09:32;-21611.50;;;17.39;70.30
7337;BME280;54510;42.016;23.098;2023-05-19T00:11:57;-21612.19;;;17.42;70.34
7337;BME280;54510;42.016;23.098;2023-05-19T00:14:23;-21613.28;;;17.46;70.26
7337;BME280;54510;42.016;23.098;2023-05-19T00:16:48;-21608.34;;;17.27;71.00
7337;BME280;54510;42.016;23.098;2023-05-19T00:19:13;-21608.34;;;17.27;70.98
7337;BME280;54510;42.016;23.098;2023-05-19T00:21:40;-21608.34;;;17.27;70.73
7337;BME280;54510;42.016;23.098;2023-05-19T00:24:06;-21604.47;;;17.13;70.15
7337;BME280;54510;42.016;23.098;2023-05-19T00:26:31;-21604.63;;;17.14;70.81
7337;BME280;54510;42.016;23.098;2023-05-19T00:28:56;-21604.22;;;17.12;70.78
7337;BME280;54510;42.016;23.098;2023-05-19T00:31:22;-21606.53;;;17.21;70.35
7337;BME280;54510;42.016;23.098;2023-05-19T00:33:47;-21601.59;;;17.03;70.73
7337;BME280;54510;42.016;23.098;2023-05-19T00:36:12;-21596.91;;;16.85;72.09
7337;BME280;54510;42.016;23.098;2023-05-19T00:38:37;-21599.94;;;16.96;71.23
7337;BME280;54510;42.016;23.098;2023-05-19T00:41:03;-21595.25;;;16.79;72.01
7337;BME280;54510;42.016;23.098;2023-05-19T00:43:29;-21596.78;;;16.85;72.55
7337;BME280;54510;42.016;23.098;2023-05-19T00:45:55;-21595.13;;;16.79;72.39
7337;BME280;54510;42.016;23.098;2023-05-19T00:48:20;-21595.13;;;16.79;72.80
7337;BME280;54510;42.016;23.098;2023-05-19T00:50:45;-21597.19;;;16.86;72.61
7337;BME280;54510;42.016;23.098;2023-05-19T00:53:12;-21593.88;;;16.74;73.08
7337;BME280;54510;42.016;23.098;2023-05-19T00:55:38;-21593.59;;;16.73;73.02
7337;BME280;54510;42.016;23.098;2023-05-19T00:58:04;-21585.34;;;16.43;74.47
7337;BME280;54510;42.016;23.098;2023-05-19T01:00:30;-21589.75;;;16.59;74.12
7337;BME280;54510;42.016;23.098;2023-05-19T01:02:55;-21593.88;;;16.74;73.57
7337;BME280;54510;42.016;23.098;2023-05-19T01:05:21;-21585.88;;;16.45;74.56
7337;BME280;54510;42.016;23.098;2023-05-19T01:07:46;-21582.16;;;16.31;75.16
7337;BME280;54510;42.016;23.098;2023-05-19T01:10:11;-21587.94;;;16.52;74.54
7337;BME280;54510;42.016;23.098;2023-05-19T01:12:36;-21591.25;;;16.65;73.93
7337;BME280;54510;42.016;23.098;2023-05-19T01:15:03;-21578.44;;;16.17;75.22
7337;BME280;54510;42.016;23.098;2023-05-19T01:17:32;-21585.34;;;16.43;75.02
7337;BME280;54510;42.016;23.098;2023-05-19T01:30:27;-21587.81;;;16.52;74.20
7337;BME280;54510;42.016;23.098;2023-05-19T01:32:53;-21590.28;;;16.61;74.19
7337;BME280;54510;42.016;23.098;2023-05-19T01:35:21;-21589.19;;;16.57;74.09
7337;BME280;54510;42.016;23.098;2023-05-19T01:37:47;-21581.06;;;16.27;75.30
7337;BME280;54510;42.016;23.098;2023-05-19T01:40:13;-21578.03;;;16.16;75.63
7337;BME280;54510;42.016;23.098;2023-05-19T01:42:39;-21576.50;;;16.10;75.64
7337;BME280;54510;42.016;23.098;2023-05-19T01:45:05;-21577.06;;;16.12;76.11
7337;BME280;54510;42.016;23.098;2023-05-19T01:47:35;-21579.97;;;16.23;75.84
7337;BME280;54510;42.016;23.098;2023-05-19T01:50:02;-21578.72;;;16.18;75.53
7337;BME280;54510;42.016;23.098;2023-05-19T01:52:27;-21579.41;;;16.21;75.65
7337;BME280;54510;42.016;23.098;2023-05-19T01:54:53;-21577.06;;;16.12;75.22
7337;BME280;54510;42.016;23.098;2023-05-19T01:58:06;-21567.97;;;15.79;76.90
7337;BME280;54510;42.016;23.098;2023-05-19T02:00:12;-21577.88;;;16.15;75.70
7337;BME280;54510;42.016;23.098;2023-05-19T02:05:10;-21581.75;;;16.30;75.52
7337;BME280;54510;42.016;23.098;2023-05-19T02:07:51;-21581.75;;;16.30;75.14
7337;BME280;54510;42.016;23.098;2023-05-19T02:10:26;-21580.38;;;16.25;74.81
7337;BME280;54510;42.016;23.098;2023-05-19T02:12:52;-21573.63;;;16.00;75.50
7337;BME280;54510;42.016;23.098;2023-05-19T02:15:23;-21573.75;;;16.00;76.12
7337;BME280;54510;42.016;23.098;2023-05-19T02:17:50;-21566.84;;;15.75;76.70
7337;BME280;54510;42.016;23.098;2023-05-19T02:20:18;-21569.47;;;15.85;76.45
7337;BME280;54510;42.016;23.098;2023-05-19T02:22:43;-21573.34;;;15.99;76.04
7337;BME280;54510;42.016;23.098;2023-05-19T02:25:09;-21574.72;;;16.04;75.75
7337;BME280;54510;42.016;23.098;2023-05-19T02:27:35;-21579.28;;;16.20;75.28
7337;BME280;54510;42.016;23.098;2023-05-19T02:30:01;-21580.09;;;16.24;74.82
7337;BME280;54510;42.016;23.098;2023-05-19T02:32:27;-21579.41;;;16.21;75.18
7337;BME280;54510;42.016;23.098;2023-05-19T02:34:52;-21581.06;;;16.27;74.56
7337;BME280;54510;42.016;23.098;2023-05-19T02:37:20;-21582.28;;;16.32;74.20
7337;BME280;54510;42.016;23.098;2023-05-19T02:39:48;-21583.41;;;16.36;74.16
7337;BME280;54510;42.016;23.098;2023-05-19T02:42:13;-21585.88;;;16.45;73.50
7337;BME280;54510;42.016;23.098;2023-05-19T02:44:41;-21586.44;;;16.47;73.43
7337;BME280;54510;42.016;23.098;2023-05-19T02:47:07;-21587.66;;;16.51;73.26
7337;BME280;54510;42.016;23.098;2023-05-19T02:49:32;-21586.28;;;16.46;73.35
7337;BME280;54510;42.016;23.098;2023-05-19T02:52:03;-21586.72;;;16.48;73.57
7337;BME280;54510;42.016;23.098;2023-05-19T02:54:29;-21577.88;;;16.15;74.10
7337;BME280;54510;42.016;23.098;2023-05-19T02:56:54;-21573.19;;;15.98;74.55
7337;BME280;54510;42.016;23.098;2023-05-19T02:59:20;-21571.00;;;15.90;74.88
7337;BME280;54510;42.016;23.098;2023-05-19T03:01:46;-21566.84;;;15.75;75.27
7337;BME280;54510;42.016;23.098;2023-05-19T03:04:11;-21570.16;;;15.87;75.42
7337;BME280;54510;42.016;23.098;2023-05-19T03:06:38;-21573.06;;;15.98;74.71
7337;BME280;54510;42.016;23.098;2023-05-19T03:09:03;-21575.53;;;16.07;74.38
7337;BME280;54510;42.016;23.098;2023-05-19T03:11:28;-21571.00;;;15.90;74.10
7337;BME280;54510;42.016;23.098;2023-05-19T03:13:54;-21567.13;;;15.76;74.47
7337;BME280;54510;42.016;23.098;2023-05-19T03:16:20;-21572.38;;;15.95;74.46
7337;BME280;54510;42.016;23.098;2023-05-19T03:18:46;-21567.81;;;15.78;74.28
7337;BME280;54510;42.016;23.098;2023-05-19T03:21:11;-21570.72;;;15.89;74.24
7337;BME280;54510;42.016;23.098;2023-05-19T03:23:36;-21568.78;;;15.82;74.54
7337;BME280;54510;42.016;23.098;2023-05-19T03:26:01;-21575.00;;;16.05;73.54
7337;BME280;54510;42.016;23.098;2023-05-19T03:28:27;-21573.47;;;15.99;73.44
7337;BME280;54510;42.016;23.098;2023-05-19T03:30:52;-21574.59;;;16.03;72.67
7337;BME280;54510;42.016;23.098;2023-05-19T03:33:17;-21575.41;;;16.06;72.65
7337;BME280;54510;42.016;23.098;2023-05-19T03:35:42;-21571.81;;;15.93;72.78
7337;BME280;54510;42.016;23.098;2023-05-19T03:38:10;-21571.69;;;15.93;72.52
7337;BME280;54510;42.016;23.098;2023-05-19T03:40:36;-21573.47;;;15.99;72.16
7337;BME280;54510;42.016;23.098;2023-05-19T03:43:01;-21571.00;;;15.90;72.32
7337;BME280;54510;42.016;23.098;2023-05-19T03:45:27;-21571.00;;;15.90;72.40
7337;BME280;54510;42.016;23.098;2023-05-19T03:47:52;-21570.84;;;15.90;72.34
7337;BME280;54510;42.016;23.098;2023-05-19T03:50:17;-21570.44;;;15.88;72.81
7337;BME280;54510;42.016;23.098;2023-05-19T03:52:42;-21568.50;;;15.81;73.15
7337;BME280;54510;42.016;23.098;2023-05-19T03:55:12;-21571.13;;;15.91;73.33
7337;BME280;54510;42.016;23.098;2023-05-19T03:57:38;-21558.56;;;15.45;73.48
7337;BME280;54510;42.016;23.098;2023-05-19T04:00:05;-21565.47;;;15.70;73.33
7337;BME280;54510;42.016;23.098;2023-05-19T04:02:31;-21568.09;;;15.79;73.44
7337;BME280;54510;42.016;23.098;2023-05-19T04:04:56;-21566.84;;;15.75;73.02
7337;BME280;54510;42.016;23.098;2023-05-19T04:07:21;-21565.47;;;15.70;73.09
7337;BME280;54510;42.016;23.098;2023-05-19T04:09:47;-21568.25;;;15.80;72.91
7337;BME280;54510;42.016;23.098;2023-05-19T04:12:12;-21566.31;;;15.73;73.40
7337;BME280;54510;42.016;23.098;2023-05-19T04:14:37;-21565.75;;;15.71;73.28
7337;BME280;54510;42.016;23.098;2023-05-19T04:17:03;-21567.53;;;15.77;73.03
7337;BME280;54510;42.016;23.098;2023-05-19T04:19:28;-21562.59;;;15.59;73.92
7337;BME280;54510;42.016;23.098;2023-05-19T04:21:53;-21565.63;;;15.70;73.68
7337;BME280;54510;42.016;23.098;2023-05-19T04:24:19;-21568.50;;;15.81;73.57
7337;BME280;54510;42.016;23.098;2023-05-19T04:26:44;-21566.59;;;15.74;73.55
7337;BME280;54510;42.016;23.098;2023-05-19T04:29:11;-21566.31;;;15.73;73.52
7337;BME280;54510;42.016;23.098;2023-05-19T04:31:38;-21571.53;;;15.92;73.65
7337;BME280;54510;42.016;23.098;2023-05-19T04:34:05;-21576.09;;;16.09;72.63
7337;BME280;54510;42.016;23.098;2023-05-19T04:36:31;-21570.72;;;15.89;72.75
7337;BME280;54510;42.016;23.098;2023-05-19T04:38:57;-21572.66;;;15.96;72.96
7337;BME280;54510;42.016;23.098;2023-05-19T04:41:27;-21576.50;;;16.10;73.03
7337;BME280;54510;42.016;23.098;2023-05-19T04:43:53;-21579.00;;;16.19;72.76
7337;BME280;54510;42.016;23.098;2023-05-19T04:46:18;-21576.91;;;16.12;72.54
7337;BME280;54510;42.016;23.098;2023-05-19T04:48:48;-21578.03;;;16.16;72.30
7337;BME280;54510;42.016;23.098;2023-05-19T04:51:14;-21582.03;;;16.31;72.32
7337;BME280;54510;42.016;23.098;2023-05-19T04:53:39;-21583.94;;;16.38;72.24
7337;BME280;54510;42.016;23.098;2023-05-19T04:56:05;-21588.63;;;16.55;71.62
7337;BME280;54510;42.016;23.098;2023-05-19T04:58:30;-21587.66;;;16.51;71.10
7337;BME280;54510;42.016;23.098;2023-05-19T05:00:55;-21586.72;;;16.48;71.29
7337;BME280;54510;42.016;23.098;2023-05-19T05:03:22;-21578.72;;;16.18;72.32
7337;BME280;54510;42.016;23.098;2023-05-19T05:05:47;-21582.84;;;16.34;71.92
7337;BME280;54510;42.016;23.098;2023-05-19T05:08:13;-21586.72;;;16.48;71.73
7337;BME280;54510;42.016;23.098;2023-05-19T05:10:40;-21593.31;;;16.72;71.56
7337;BME280;54510;42.016;23.098;2023-05-19T05:13:05;-21599.25;;;16.94;70.48
7337;BME280;54510;42.016;23.098;2023-05-19T05:15:31;-21597.72;;;16.88;70.03
7337;BME280;54510;42.016;23.098;2023-05-19T05:17:56;-21601.31;;;17.02;70.10
7337;BME280;54510;42.016;23.098;2023-05-19T05:20:21;-21604.63;;;17.14;69.32
7337;BME280;54510;42.016;23.098;2023-05-19T05:22:47;-21605.59;;;17.17;68.68
7337;BME280;54510;42.016;23.098;2023-05-19T05:25:12;-21607.38;;;17.24;68.60
7337;BME280;54510;42.016;23.098;2023-05-19T05:27:38;-21609.56;;;17.32;68.77
7337;BME280;54510;42.016;23.098;2023-05-19T05:30:03;-21609.31;;;17.31;68.37
7337;BME280;54510;42.016;23.098;2023-05-19T05:32:29;-21611.22;;;17.38;68.23
7337;BME280;54510;42.016;23.098;2023-05-19T05:34:54;-21612.31;;;17.42;68.17
7337;BME280;54510;42.016;23.098;2023-05-19T05:37:20;-21616.72;;;17.58;67.62
7337;BME280;54510;42.016;23.098;2023-05-19T05:39:45;-21621.69;;;17.76;67.14
7337;BME280;54510;42.016;23.098;2023-05-19T05:42:10;-21621.41;;;17.75;66.39
7337;BME280;54510;42.016;23.098;2023-05-19T05:44:36;-21624.72;;;17.88;66.03
7337;BME280;54510;42.016;23.098;2023-05-19T05:47:02;-21626.22;;;17.93;66.37
7337;BME280;54510;42.016;23.098;2023-05-19T05:49:27;-21628.44;;;18.01;65.60
7337;BME280;54510;42.016;23.098;2023-05-19T05:51:52;-21629.66;;;18.06;65.11
7337;BME280;54510;42.016;23.098;2023-05-19T05:54:19;-21631.72;;;18.13;65.07
7337;BME280;54510;42.016;23.098;2023-05-19T05:56:45;-21633.25;;;18.19;64.77
7337;BME280;54510;42.016;23.098;2023-05-19T05:59:11;-21636.00;;;18.29;64.85
7337;BME280;54510;42.016;23.098;2023-05-19T06:01:36;-21635.56;;;18.28;64.28
7337;BME280;54510;42.016;23.098;2023-05-19T06:04:02;-21637.91;;;18.36;64.00
7337;BME280;54510;42.016;23.098;2023-05-19T06:06:27;-21640.94;;;18.47;63.64
7337;BME280;54510;42.016;23.098;2023-05-19T06:08:52;-21643.41;;;18.57;63.88
7337;BME280;54510;42.016;23.098;2023-05-19T06:11:18;-21645.47;;;18.64;63.65
7337;BME280;54510;42.016;23.098;2023-05-19T06:13:43;-21647.25;;;18.71;63.29
7337;BME280;54510;42.016;23.098;2023-05-19T06:16:09;-21648.63;;;18.76;62.82
7337;BME280;54510;42.016;23.098;2023-05-19T06:18:34;-21649.19;;;18.78;62.56
7337;BME280;54510;42.016;23.098;2023-05-19T06:20:59;-21650.56;;;18.83;62.90
7337;BME280;54510;42.016;23.098;2023-05-19T06:23:25;-21652.22;;;18.89;63.68
7337;BME280;54510;42.016;23.098;2023-05-19T06:25:53;-21653.16;;;18.92;62.49
7337;BME280;54510;42.016;23.098;2023-05-19T06:28:18;-21647.53;;;18.72;63.41
7337;BME280;54510;42.016;23.098;2023-05-19T06:30:43;-21649.47;;;18.79;63.16
7337;BME280;54510;42.016;23.098;2023-05-19T06:33:08;-21648.22;;;18.74;63.27
7337;BME280;54510;42.016;23.098;2023-05-19T06:35:34;-21646.56;;;18.68;61.91
7337;BME280;54510;42.016;23.098;2023-05-19T06:37:59;-21655.78;;;19.02;61.86
7337;BME280;54510;42.016;23.098;2023-05-19T06:40:24;-21661.00;;;19.21;61.62
7337;BME280;54510;42.016;23.098;2023-05-19T06:42:50;-21666.91;;;19.43;61.22
7337;BME280;54510;42.016;23.098;2023-05-19T06:45:15;-21666.75;;;19.43;61.05
7337;BME280;54510;42.016;23.098;2023-05-19T06:47:40;-21673.06;;;19.66;60.21
7337;BME280;54510;42.016;23.098;2023-05-19T06:50:08;-21676.38;;;19.78;59.85
7337;BME280;54510;42.016;23.098;2023-05-19T06:52:34;-21676.91;;;19.80;58.91
7337;BME280;54510;42.016;23.098;2023-05-19T06:55:00;-21677.75;;;19.83;59.48
7337;BME280;54510;42.016;23.098;2023-05-19T06:57:25;-21679.38;;;19.89;58.43
7337;BME280;54510;42.016;23.098;2023-05-19T06:59:50;-21680.47;;;19.93;58.68
7337;BME280;54510;42.016;23.098;2023-05-19T07:02:15;-21687.63;;;20.20;58.43
7337;BME280;54510;42.016;23.098;2023-05-19T07:04:41;-21690.78;;;20.31;57.06
7337;BME280;54510;42.016;23.098;2023-05-19T07:07:06;-21693.78;;;20.42;57.21
7337;BME280;54510;42.016;23.098;2023-05-19T07:09:32;-21694.63;;;20.45;56.93
7337;BME280;54510;42.016;23.098;2023-05-19T07:11:57;-21688.03;;;20.21;57.05
7337;BME280;54510;42.016;23.098;2023-05-19T07:14:22;-21692.84;;;20.39;56.63
7337;BME280;54510;42.016;23.098;2023-05-19T07:16:48;-21692.84;;;20.39;56.60
7337;BME280;54510;42.016;23.098;2023-05-19T07:19:13;-21695.03;;;20.47;56.97
7337;BME280;54510;42.016;23.098;2023-05-19T07:21:38;-21694.19;;;20.44;56.46
7337;BME280;54510;42.016;23.098;2023-05-19T07:24:04;-21691.47;;;20.34;57.06
7337;BME280;54510;42.016;23.098;2023-05-19T07:26:29;-21690.63;;;20.31;57.08
7337;BME280;54510;42.016;23.098;2023-05-19T07:28:54;-21691.19;;;20.33;57.24
7337;BME280;54510;42.016;23.098;2023-05-19T07:31:20;-21692.97;;;20.39;57.61
7337;BME280;54510;42.016;23.098;2023-05-19T07:33:46;-21696.41;;;20.52;57.61
7337;BME280;54510;42.016;23.098;2023-05-19T07:36:11;-21693.09;;;20.40;56.19
7337;BME280;54510;42.016;23.098;2023-05-19T07:38:36;-21700.22;;;20.66;55.94
7337;BME280;54510;42.016;23.098;2023-05-19T07:41:02;-21702.41;;;20.74;56.31
7337;BME280;54510;42.016;23.098;2023-05-19T07:43:27;-21705.03;;;20.84;55.40
7337;BME280;54510;42.016;23.098;2023-05-19T07:45:53;-21705.56;;;20.86;55.36
7337;BME280;54510;42.016;23.098;2023-05-19T07:48:20;-21709.28;;;21.00;55.25
7337;BME280;54510;42.016;23.098;2023-05-19T07:50:47;-21711.19;;;21.07;55.22
7337;BME280;54510;42.016;23.098;2023-05-19T07:53:12;-21714.19;;;21.18;55.44
7337;BME280;54510;42.016;23.098;2023-05-19T07:55:37;-21716.41;;;21.26;56.74
7337;BME280;54510;42.016;23.098;2023-05-19T07:58:03;-21717.50;;;21.30;56.45
7337;BME280;54510;42.016;23.098;2023-05-19T08:00:28;-21721.03;;;21.43;56.38
7337;BME280;54510;42.016;23.098;2023-05-19T08:02:53;-21721.72;;;21.46;56.53
7337;BME280;54510;42.016;23.098;2023-05-19T08:05:20;-21722.69;;;21.49;55.21
7337;BME280;54510;42.016;23.098;2023-05-19T08:07:46;-21721.59;;;21.45;54.88
7337;BME280;54510;42.016;23.098;2023-05-19T08:10:11;-21722.97;;;21.50;55.39
7337;BME280;54510;42.016;23.098;2023-05-19T08:12:36;-21723.91;;;21.54;55.38
7337;BME280;54510;42.016;23.098;2023-05-19T08:15:02;-21724.88;;;21.57;54.97
7337;BME280;54510;42.016;23.098;2023-05-19T08:17:27;-21727.47;;;21.67;55.65
7337;BME280;54510;42.016;23.098;2023-05-19T08:19:52;-21728.97;;;21.73;54.55
7337;BME280;54510;42.016;23.098;2023-05-19T08:22:17;-21734.19;;;21.92;55.73
7337;BME280;54510;42.016;23.098;2023-05-19T08:24:43;-21739.09;;;22.10;55.52
7337;BME280;54510;42.016;23.098;2023-05-19T08:27:08;-21739.38;;;22.11;54.74
7337;BME280;54510;42.016;23.098;2023-05-19T08:29:33;-21741.56;;;22.19;55.43
7337;BME280;54510;42.016;23.098;2023-05-19T08:31:59;-21744.97;;;22.32;54.25
7337;BME280;54510;42.016;23.098;2023-05-19T08:34:25;-21745.13;;;22.32;53.66
7337;BME280;54510;42.016;23.098;2023-05-19T08:36:50;-21744.44;;;22.30;54.33
7337;BME280;54510;42.016;23.098;2023-05-19T08:39:17;-21751.81;;;22.57;53.43
7337;BME280;54510;42.016;23.098;2023-05-19T08:41:48;-21754.69;;;22.68;52.58
7337;BME280;54510;42.016;23.098;2023-05-19T08:44:13;-21757.84;;;22.79;52.48
7337;BME280;54510;42.016;23.098;2023-05-19T08:46:38;-21758.25;;;22.81;51.88
7337;BME280;54510;42.016;23.098;2023-05-19T08:49:06;-21758.38;;;22.81;51.97
7337;BME280;54510;42.016;23.098;2023-05-19T08:54:03;-21763.16;;;22.99;52.15
7337;BME280;54510;42.016;23.098;2023-05-19T08:56:33;-21766.44;;;23.11;51.66
7337;BME280;54510;42.016;23.098;2023-05-19T08:58:58;-21771.06;;;23.29;52.38
7337;BME280;54510;42.016;23.098;2023-05-19T09:01:24;-21780.50;;;23.63;51.52
7337;BME280;54510;42.016;23.098;2023-05-19T09:03:52;-21785.94;;;23.84;50.77
7337;BME280;54510;42.016;23.098;2023-05-19T09:06:18;-21787.19;;;23.88;50.91
7337;BME280;54510;42.016;23.098;2023-05-19T09:08:43;-21789.38;;;23.96;49.56
7337;BME280;54510;42.016;23.098;2023-05-19T09:11:09;-21790.72;;;24.01;51.07
7337;BME280;54510;42.016;23.098;2023-05-19T09:13:34;-21788.81;;;23.94;50.41
7337;BME280;54510;42.016;23.098;2023-05-19T09:16:00;-21791.13;;;24.03;51.05
7337;BME280;54510;42.016;23.098;2023-05-19T09:18:26;-21790.47;;;24.00;50.25
7337;BME280;54510;42.016;23.098;2023-05-19T09:20:55;-21789.09;;;23.95;49.11
7337;BME280;54510;42.016;23.098;2023-05-19T09:23:23;-21797.00;;;24.25;47.79
7337;BME280;54510;42.016;23.098;2023-05-19T09:25:52;-21803.00;;;24.47;46.28
7337;BME280;54510;42.016;23.098;2023-05-19T09:28:28;-21806.81;;;24.61;45.79
7337;BME280;54510;42.016;23.098;2023-05-19T09:30:58;-21808.19;;;24.66;45.79
7337;BME280;54510;42.016;23.098;2023-05-19T09:33:23;-21809.69;;;24.72;47.34
7337;BME280;54510;42.016;23.098;2023-05-19T09:35:48;-21806.53;;;24.60;47.47
7337;BME280;54510;42.016;23.098;2023-05-19T09:38:17;-21807.50;;;24.64;47.45
7337;BME280;54510;42.016;23.098;2023-05-19T09:40:43;-21812.41;;;24.82;47.83
7337;BME280;54510;42.016;23.098;2023-05-19T09:43:08;-21817.31;;;25.00;46.93
7337;BME280;54510;42.016;23.098;2023-05-19T09:45:33;-21820.84;;;25.13;46.15
7337;BME280;54510;42.016;23.098;2023-05-19T09:48:02;-21824.66;;;25.28;46.59
7337;BME280;54510;42.016;23.098;2023-05-19T09:50:28;-21824.09;;;25.26;45.45
7337;BME280;54510;42.016;23.098;2023-05-19T09:52:54;-21827.25;;;25.37;44.83
7337;BME280;54510;42.016;23.098;2023-05-19T09:55:20;-21826.44;;;25.34;43.88
7337;BME280;54510;42.016;23.098;2023-05-19T09:57:49;-21822.06;;;25.18;44.24
7337;BME280;54510;42.016;23.098;2023-05-19T10:00:16;-21833.38;;;25.60;42.30
7337;BME280;54510;42.016;23.098;2023-05-19T10:02:43;-21841.25;;;25.89;40.81
7337;BME280;54510;42.016;23.098;2023-05-19T10:05:18;-21842.34;;;25.93;39.82
7337;BME280;54510;42.016;23.098;2023-05-19T10:07:51;-21845.59;;;26.06;39.92
7337;BME280;54510;42.016;23.098;2023-05-19T10:10:16;-21843.03;;;25.96;37.83
7337;BME280;54510;42.016;23.098;2023-05-19T10:12:44;-21840.56;;;25.87;37.23
7337;BME280;54510;42.016;23.098;2023-05-19T10:15:11;-21846.28;;;26.08;37.06
7337;BME280;54510;42.016;23.098;2023-05-19T10:17:37;-21848.47;;;26.16;38.24
7337;BME280;54510;42.016;23.098;2023-05-19T10:20:02;-21853.63;;;26.35;37.54
7337;BME280;54510;42.016;23.098;2023-05-19T10:22:31;-21847.09;;;26.11;37.95
7337;BME280;54510;42.016;23.098;2023-05-19T10:24:56;-21843.03;;;25.96;37.47
7337;BME280;54510;42.016;23.098;2023-05-19T10:27:21;-21835.94;;;25.70;37.00
7337;BME280;54510;42.016;23.098;2023-05-19T10:29:48;-21833.63;;;25.61;38.02
7337;BME280;54510;42.016;23.098;2023-05-19T10:32:16;-21843.97;;;26.00;36.67
7337;BME280;54510;42.016;23.098;2023-05-19T10:37:27;-21848.59;;;26.17;37.06
7337;BME280;54510;42.016;23.098;2023-05-19T10:39:56;-21848.59;;;26.17;37.96
7337;BME280;54510;42.016;23.098;2023-05-19T10:45:10;-21847.66;;;26.13;37.66
7337;BME280;54510;42.016;23.098;2023-05-19T10:47:39;-21845.34;;;26.05;37.55
7337;BME280;54510;42.016;23.098;2023-05-19T10:50:04;-21844.09;;;26.00;37.94
7337;BME280;54510;42.016;23.098;2023-05-19T10:52:30;-21844.25;;;26.01;38.39
7337;BME280;54510;42.016;23.098;2023-05-19T10:55:00;-21849.28;;;26.19;38.64
7337;BME280;54510;42.016;23.098;2023-05-19T10:57:26;-21851.59;;;26.28;38.59
7337;BME280;54510;42.016;23.098;2023-05-19T10:59:57;-21849.94;;;26.22;38.64
7337;BME280;54510;42.016;23.098;2023-05-19T11:02:41;-21852.00;;;26.29;37.10
7337;BME280;54510;42.016;23.098;2023-05-19T11:05:11;-21855.00;;;26.41;37.11
7337;BME280;54510;42.016;23.098;2023-05-19T11:07:41;-21861.09;;;26.63;37.20
7337;BME280;54510;42.016;23.098;2023-05-19T11:10:10;-21861.50;;;26.65;35.53
7337;BME280;54510;42.016;23.098;2023-05-19T11:12:39;-21860.00;;;26.59;36.22
7337;BME280;54510;42.016;23.098;2023-05-19T11:15:06;-21863.69;;;26.73;36.70
7337;BME280;54510;42.016;23.098;2023-05-19T11:17:31;-21866.66;;;26.84;36.33
7337;BME280;54510;42.016;23.098;2023-05-19T11:19:58;-21868.03;;;26.89;35.88
7337;BME280;54510;42.016;23.098;2023-05-19T11:22:25;-21872.66;;;27.06;36.39
7337;BME280;54510;42.016;23.098;2023-05-19T11:24:50;-21874.94;;;27.15;35.32
7337;BME280;54510;42.016;23.098;2023-05-19T11:27:23;-21873.72;;;27.10;35.80
7337;BME280;54510;42.016;23.098;2023-05-19T11:29:48;-21873.47;;;27.09;35.42
7337;BME280;54510;42.016;23.098;2023-05-19T11:32:15;-21877.25;;;27.24;35.42
7337;BME280;54510;42.016;23.098;2023-05-19T11:34:40;-21879.97;;;27.34;35.52
7337;BME280;54510;42.016;23.098;2023-05-19T11:37:06;-21885.66;;;27.55;35.56
7337;BME280;54510;42.016;23.098;2023-05-19T11:39:31;-21887.31;;;27.61;35.00
7337;BME280;54510;42.016;23.098;2023-05-19T11:41:57;-21889.47;;;27.69;34.19
7337;BME280;54510;42.016;23.098;2023-05-19T11:44:22;-21893.94;;;27.86;35.22
7337;BME280;54510;42.016;23.098;2023-05-19T11:46:47;-21894.88;;;27.89;34.51
7337;BME280;54510;42.016;23.098;2023-05-19T11:49:13;-21901.41;;;28.14;34.29
7337;BME280;54510;42.016;23.098;2023-05-19T11:51:41;-21898.16;;;28.02;34.25
7337;BME280;54510;42.016;23.098;2023-05-19T11:54:07;-21894.06;;;27.86;34.28
7337;BME280;54510;42.016;23.098;2023-05-19T11:56:36;-21901.94;;;28.16;34.73
7337;BME280;54510;42.016;23.098;2023-05-19T11:59:03;-21903.03;;;28.20;34.64
7337;BME280;54510;42.016;23.098;2023-05-19T12:01:28;-21905.59;;;28.29;35.30
7337;BME280;54510;42.016;23.098;2023-05-19T12:03:55;-21908.97;;;28.42;35.09
7337;BME280;54510;42.016;23.098;2023-05-19T12:06:21;-21911.16;;;28.50;33.92
7337;BME280;54510;42.016;23.098;2023-05-19T12:08:47;-21908.97;;;28.42;34.11
7337;BME280;54510;42.016;23.098;2023-05-19T12:11:14;-21905.59;;;28.29;33.72
7337;BME280;54510;42.016;23.098;2023-05-19T12:13:39;-21903.84;;;28.23;34.23
7337;BME280;54510;42.016;23.098;2023-05-19T12:16:05;-21904.13;;;28.24;34.06
7337;BME280;54510;42.016;23.098;2023-05-19T12:18:35;-21897.06;;;27.98;34.41
7337;BME280;54510;42.016;23.098;2023-05-19T12:21:00;-21897.59;;;28.00;34.45
7337;BME280;54510;42.016;23.098;2023-05-19T12:23:25;-21896.53;;;27.96;33.79
7337;BME280;54510;42.016;23.098;2023-05-19T12:25:51;-21896.94;;;27.97;33.37
7337;BME280;54510;42.016;23.098;2023-05-19T12:28:17;-21898.00;;;28.01;33.09
7337;BME280;54510;42.016;23.098;2023-05-19T12:30:46;-21894.22;;;27.87;33.95
7337;BME280;54510;42.016;23.098;2023-05-19T12:33:11;-21898.00;;;28.01;34.08
7337;BME280;54510;42.016;23.098;2023-05-19T12:35:38;-21900.44;;;28.10;34.11
7337;BME280;54510;42.016;23.098;2023-05-19T12:38:05;-21901.00;;;28.12;32.85
7337;BME280;54510;42.016;23.098;2023-05-19T12:40:31;-21901.25;;;28.13;33.14
7337;BME280;54510;42.016;23.098;2023-05-19T12:42:57;-21899.22;;;28.06;32.41
7337;BME280;54510;42.016;23.098;2023-05-19T12:45:22;-21899.63;;;28.07;31.82
7337;BME280;54510;42.016;23.098;2023-05-19T12:47:50;-21900.03;;;28.09;32.01
7337;BME280;54510;42.016;23.098;2023-05-19T12:50:16;-21900.84;;;28.12;32.39
7337;BME280;54510;42.016;23.098;2023-05-19T12:55:07;-21897.88;;;28.01;32.27
7337;BME280;54510;42.016;23.098;2023-05-19T12:57:33;-21903.28;;;28.21;32.28
7337;BME280;54510;42.016;23.098;2023-05-19T13:00:12;-21905.19;;;28.28;31.96
7337;BME280;54510;42.016;23.098;2023-05-19T13:03:13;-21900.19;;;28.09;30.99
7337;BME280;54510;42.016;23.098;2023-05-19T13:05:33;-21906.94;;;28.35;31.91
7337;BME280;54510;42.016;23.098;2023-05-19T13:08:06;-21913.31;;;28.58;30.09
7337;BME280;54510;42.016;23.098;2023-05-19T13:10:32;-21912.22;;;28.54;29.38